createdAt,value
2023-03-24T00:02:10.144Z,10.57
2023-03-24T00:04:42.579Z,11.29
2023-03-24T00:07:14.485Z,11.06
2023-03-24T00:09:42.512Z,11.03
2023-03-24T00:12:10.200Z,11.01
2023-03-24T00:14:38.781Z,10.35
2023-03-24T00:17:06.992Z,10.85
2023-03-24T00:19:34.181Z,10.80
2023-03-24T00:22:02.255Z,10.68
2023-03-24T00:24:29.821Z,10.21
2023-03-24T00:26:57.785Z,10.26
2023-03-24T00:29:25.631Z,9.60
2023-03-24T00:31:53.382Z,9.20
2023-03-24T00:34:23.283Z,9.02
2023-03-24T00:36:53.546Z,8.72
2023-03-24T00:39:21.200Z,8.88
2023-03-24T00:41:48.595Z,9.11
2023-03-24T00:44:19.312Z,8.98
2023-03-24T00:46:56.424Z,9.42
2023-03-24T00:49:41.986Z,9.24
2023-03-24T00:52:10.544Z,8.99
2023-03-24T00:54:38.435Z,9.41
2023-03-24T00:57:06.379Z,9.05
2023-03-24T00:59:38.124Z,8.86
2023-03-24T01:02:06.021Z,8.64
2023-03-24T01:04:36.212Z,8.99
2023-03-24T01:07:04.106Z,9.98
2023-03-24T01:09:31.293Z,10.47
2023-03-24T01:11:58.804Z,10.89
2023-03-24T01:14:26.023Z,10.77
2023-03-24T01:16:53.226Z,10.37
2023-03-24T01:19:20.708Z,9.79
2023-03-24T01:21:50.965Z,9.62
2023-03-24T01:24:18.323Z,10.03
2023-03-24T01:26:46.193Z,9.89
2023-03-24T01:29:13.531Z,10.19
2023-03-24T01:31:42.160Z,10.53
2023-03-24T01:34:09.714Z,10.97
2023-03-24T01:36:36.884Z,10.26
2023-03-24T01:39:05.243Z,10.28
2023-03-24T01:41:37.505Z,10.08
2023-03-24T01:44:27.707Z,10.10
2023-03-24T01:46:55.680Z,10.21
2023-03-24T01:49:23.306Z,10.93
2023-03-24T01:51:52.397Z,11.16
2023-03-24T01:54:24.320Z,11.04
2023-03-24T01:56:53.608Z,10.99
2023-03-24T01:59:22.431Z,10.22
2023-03-24T02:01:52.244Z,10.72
2023-03-24T02:04:20.516Z,10.17
2023-03-24T02:06:49.050Z,9.77
2023-03-24T02:09:16.362Z,10.60
2023-03-24T02:12:03.111Z,10.65
2023-03-24T02:14:32.132Z,10.97
2023-03-24T02:17:04.133Z,11.37
2023-03-24T02:19:38.126Z,11.25
2023-03-24T02:22:34.746Z,11.15
2023-03-24T02:25:22.932Z,10.12
2023-03-24T02:27:54.723Z,10.03
2023-03-24T02:30:28.472Z,10.89
2023-03-24T02:33:11.425Z,11.23
2023-03-24T02:35:57.517Z,10.92
2023-03-24T02:38:25.152Z,9.84
2023-03-24T02:41:01.394Z,8.42
2023-03-24T02:43:28.837Z,8.26
2023-03-24T02:46:14.133Z,8.28
2023-03-24T02:49:01.086Z,7.81
2023-03-24T02:51:47.228Z,7.67
2023-03-24T02:54:27.203Z,7.67
2023-03-24T02:57:10.548Z,7.56
2023-03-24T02:59:45.479Z,7.73
2023-03-24T03:02:21.248Z,7.75
2023-03-24T03:04:57.091Z,8.25
2023-03-24T03:07:26.557Z,8.66
2023-03-24T03:10:02.283Z,7.79
2023-03-24T03:12:30.849Z,8.73
2023-03-24T03:15:02.174Z,9.41
2023-03-24T03:17:31.331Z,9.77
2023-03-24T03:20:08.132Z,10.19
2023-03-24T03:22:43.971Z,9.99
2023-03-24T03:25:12.155Z,9.74
2023-03-24T03:27:39.626Z,9.69
2023-03-24T03:30:07.323Z,9.62
2023-03-24T03:32:36.085Z,9.66
2023-03-24T03:35:10.354Z,9.15
2023-03-24T03:37:59.265Z,9.22
2023-03-24T03:40:31.974Z,9.65
2023-03-24T03:43:02.261Z,9.82
2023-03-24T03:45:29.427Z,9.90
2023-03-24T03:47:56.785Z,9.80
2023-03-24T03:50:24.310Z,9.79
2023-03-24T03:52:52.896Z,10.04
2023-03-24T03:55:20.145Z,10.17
2023-03-24T03:57:47.925Z,10.21
2023-03-24T04:00:17.095Z,9.70
2023-03-24T04:03:06.320Z,9.69
2023-03-24T04:05:34.871Z,9.66
2023-03-24T04:08:17.327Z,9.90
2023-03-24T04:10:51.847Z,9.07
2023-03-24T04:13:28.106Z,9.58
2023-03-24T04:15:59.794Z,9.69
2023-03-24T04:18:38.855Z,9.28
2023-03-24T04:21:19.920Z,9.39
2023-03-24T04:23:50.561Z,9.22
2023-03-24T04:26:34.444Z,8.99
2023-03-24T04:29:17.816Z,9.38
2023-03-24T04:31:49.431Z,9.56
2023-03-24T04:34:21.445Z,9.65
2023-03-24T04:36:54.521Z,10.28
2023-03-24T04:39:28.178Z,10.04
2023-03-24T04:41:56.800Z,9.42
2023-03-24T04:44:25.650Z,9.07
2023-03-24T04:46:55.762Z,8.28
2023-03-24T04:49:25.561Z,9.44
2023-03-24T04:51:53.537Z,9.50
2023-03-24T04:54:21.337Z,9.61
2023-03-24T04:56:51.021Z,9.64
2023-03-24T04:59:18.769Z,9.90
2023-03-24T05:01:50.268Z,9.36
2023-03-24T05:04:20.175Z,9.47
2023-03-24T05:06:49.685Z,9.14
2023-03-24T05:09:18.801Z,9.50
2023-03-24T05:11:46.219Z,9.61
2023-03-24T05:14:14.137Z,9.47
2023-03-24T05:16:41.364Z,9.70
2023-03-24T05:19:09.103Z,10.17
2023-03-24T05:21:36.788Z,8.81
2023-03-24T05:24:04.333Z,9.50
2023-03-24T05:26:33.271Z,9.79
2023-03-24T05:29:02.227Z,9.52
2023-03-24T05:31:29.649Z,9.33
2023-03-24T05:33:57.105Z,9.21
2023-03-24T05:36:24.918Z,9.22
2023-03-24T05:38:53.704Z,9.23
2023-03-24T05:41:21.377Z,9.15
2023-03-24T05:43:48.865Z,9.35
2023-03-24T05:46:16.374Z,9.75
2023-03-24T05:48:44.403Z,9.83
2023-03-24T05:51:12.368Z,9.81
2023-03-24T05:53:58.519Z,10.61
2023-03-24T05:56:27.969Z,10.10
2023-03-24T05:58:56.151Z,10.24
2023-03-24T06:01:25.396Z,9.96
2023-03-24T06:03:54.375Z,9.77
2023-03-24T06:06:22.374Z,9.63
2023-03-24T06:08:50.292Z,9.88
2023-03-24T06:11:17.907Z,9.90
2023-03-24T06:13:45.880Z,10.13
2023-03-24T06:16:13.263Z,10.91
2023-03-24T06:18:42.669Z,11.09
2023-03-24T06:21:11.083Z,11.29
2023-03-24T06:23:38.957Z,11.15
2023-03-24T06:26:09.023Z,11.23
2023-03-24T06:28:39.788Z,11.50
2023-03-24T06:31:15.194Z,11.68
2023-03-24T06:33:42.769Z,11.91
2023-03-24T06:36:10.876Z,12.10
2023-03-24T06:38:38.243Z,12.22
2023-03-24T06:41:05.915Z,12.14
2023-03-24T06:43:33.584Z,12.10
2023-03-24T06:46:01.192Z,11.79
2023-03-24T06:48:28.617Z,12.03
2023-03-24T06:50:58.905Z,12.16
2023-03-24T06:53:26.376Z,12.48
2023-03-24T06:55:54.209Z,12.20
2023-03-24T06:58:22.665Z,12.31
2023-03-24T07:00:51.825Z,12.45
2023-03-24T07:03:19.622Z,12.39
2023-03-24T07:05:53.182Z,12.67
2023-03-24T07:08:36.472Z,12.57
2023-03-24T07:11:07.590Z,12.70
2023-03-24T07:13:35.085Z,12.82
2023-03-24T07:16:02.878Z,13.03
2023-03-24T07:18:30.657Z,12.98
2023-03-24T07:20:58.225Z,13.24
2023-03-24T07:23:27.524Z,13.51
2023-03-24T07:25:56.019Z,13.46
2023-03-24T07:28:24.250Z,13.39
2023-03-24T07:30:53.893Z,13.80
2023-03-24T07:33:24.992Z,14.01
2023-03-24T07:35:56.315Z,13.94
2023-03-24T07:38:24.415Z,14.34
2023-03-24T07:40:52.253Z,14.29
2023-03-24T07:43:20.497Z,14.67
2023-03-24T07:45:49.223Z,14.72
2023-03-24T07:48:16.802Z,14.72
2023-03-24T07:50:44.279Z,14.98
2023-03-24T07:53:14.992Z,14.93
2023-03-24T07:55:42.416Z,15.41
2023-03-24T07:58:11.526Z,15.68
2023-03-24T08:00:40.500Z,15.76
2023-03-24T08:03:14.140Z,15.87
2023-03-24T08:05:43.547Z,16.17
2023-03-24T08:08:11.699Z,16.49
2023-03-24T08:10:38.879Z,16.82
2023-03-24T08:13:06.210Z,17.09
2023-03-24T08:15:33.876Z,17.00
2023-03-24T08:18:01.107Z,16.79
2023-03-24T08:20:29.612Z,16.47
2023-03-24T08:22:57.310Z,16.67
2023-03-24T08:25:25.825Z,16.44
2023-03-24T08:27:53.764Z,16.58
2023-03-24T08:30:23.576Z,16.88
2023-03-24T08:32:51.981Z,17.95
2023-03-24T08:35:20.603Z,18.76
2023-03-24T08:37:48.266Z,19.73
2023-03-24T08:40:19.529Z,19.28
2023-03-24T08:42:51.606Z,18.17
2023-03-24T08:45:21.239Z,17.29
2023-03-24T08:47:49.316Z,17.49
2023-03-24T08:50:16.717Z,17.79
2023-03-24T08:52:48.101Z,16.98
2023-03-24T08:55:16.561Z,17.46
2023-03-24T08:57:44.199Z,18.43
2023-03-24T09:00:15.420Z,18.48
2023-03-24T09:02:43.069Z,18.83
2023-03-24T09:05:11.343Z,17.54
2023-03-24T09:07:38.648Z,17.38
2023-03-24T09:10:06.730Z,17.80
2023-03-24T09:12:34.565Z,18.42
2023-03-24T09:15:01.857Z,19.00
2023-03-24T09:17:29.134Z,18.90
2023-03-24T09:19:56.690Z,19.47
2023-03-24T09:22:23.889Z,19.29
2023-03-24T09:24:51.377Z,18.96
2023-03-24T09:27:18.992Z,19.71
2023-03-24T09:29:47.610Z,18.91
2023-03-24T09:32:14.799Z,18.70
2023-03-24T09:34:42.245Z,18.70
2023-03-24T09:37:09.402Z,18.71
2023-03-24T09:39:36.736Z,18.70
2023-03-24T09:42:05.535Z,19.21
2023-03-24T09:44:43.510Z,19.81
2023-03-24T09:47:49.741Z,19.81
2023-03-24T09:50:23.017Z,19.43
2023-03-24T09:52:52.198Z,19.81
2023-03-24T09:55:26.944Z,20.08
2023-03-24T09:57:56.265Z,20.90
2023-03-24T10:00:23.622Z,19.94
2023-03-24T10:02:53.020Z,20.13
2023-03-24T10:05:23.214Z,20.57
2023-03-24T10:07:58.966Z,20.33
2023-03-24T10:10:46.545Z,21.07
2023-03-24T10:13:35.502Z,20.54
2023-03-24T10:16:22.938Z,21.49
2023-03-24T10:19:20.029Z,20.48
2023-03-24T10:21:52.239Z,21.09
2023-03-24T10:24:26.233Z,21.24
2023-03-24T10:27:04.450Z,20.87
2023-03-24T10:29:35.958Z,20.69
2023-03-24T10:32:09.436Z,20.80
2023-03-24T10:34:37.231Z,20.93
2023-03-24T10:37:04.907Z,21.49
2023-03-24T10:39:44.123Z,21.73
2023-03-24T10:42:25.714Z,21.46
2023-03-24T10:44:53.167Z,22.33
2023-03-24T10:47:32.944Z,22.13
2023-03-24T10:50:12.791Z,21.90
2023-03-24T10:52:45.482Z,22.15
2023-03-24T10:55:17.168Z,21.69
2023-03-24T10:57:49.013Z,22.12
2023-03-24T11:00:18.926Z,22.34
2023-03-24T11:02:52.432Z,22.14
2023-03-24T11:05:20.235Z,21.86
2023-03-24T11:07:48.932Z,22.37
2023-03-24T11:10:19.027Z,22.39
2023-03-24T11:12:55.653Z,22.33
2023-03-24T11:15:30.477Z,22.06
2023-03-24T11:18:03.824Z,22.05
2023-03-24T11:20:32.662Z,22.19
2023-03-24T11:23:01.480Z,21.83
2023-03-24T11:25:29.623Z,21.59
2023-03-24T11:28:09.385Z,22.10
2023-03-24T11:30:56.984Z,22.45
2023-03-24T11:33:35.769Z,22.36
2023-03-24T11:36:31.005Z,22.64
2023-03-24T11:39:02.029Z,23.02
2023-03-24T11:41:29.936Z,22.70
2023-03-24T11:44:14.606Z,22.60
2023-03-24T11:46:43.537Z,22.69
2023-03-24T11:49:14.095Z,22.66
2023-03-24T11:51:42.834Z,23.04
2023-03-24T11:54:13.910Z,23.34
2023-03-24T11:56:46.624Z,23.19
2023-03-24T11:59:23.160Z,23.90
2023-03-24T12:02:43.140Z,23.33
2023-03-24T12:05:30.497Z,23.01
2023-03-24T12:08:03.126Z,22.71
2023-03-24T12:10:43.835Z,23.40
2023-03-24T12:13:26.043Z,23.65
2023-03-24T12:16:25.705Z,23.15
2023-03-24T12:18:53.168Z,22.71
2023-03-24T12:21:43.002Z,22.94
2023-03-24T12:24:44.420Z,22.29
2023-03-24T12:27:28.558Z,22.64
2023-03-24T12:30:15.074Z,23.02
2023-03-24T12:32:52.650Z,22.66
2023-03-24T12:35:31.545Z,22.65
2023-03-24T12:38:14.041Z,22.94
2023-03-24T12:41:06.485Z,22.27
2023-03-24T12:43:37.515Z,22.35
2023-03-24T12:46:16.690Z,22.53
2023-03-24T12:49:22.760Z,22.83
2023-03-24T12:52:16.844Z,22.84
2023-03-24T12:55:38.944Z,22.58
2023-03-24T12:58:20.162Z,22.79
2023-03-24T13:01:04.145Z,22.88
2023-03-24T13:03:44.128Z,23.09
2023-03-24T13:06:22.025Z,23.45
2023-03-24T13:09:05.195Z,23.44
2023-03-24T13:11:39.151Z,22.94
2023-03-24T13:14:12.602Z,23.08
2023-03-24T13:16:40.946Z,23.60
2023-03-24T13:19:18.785Z,23.43
2023-03-24T13:21:46.358Z,23.07
2023-03-24T13:24:15.310Z,23.09
2023-03-24T13:27:09.176Z,23.15
2023-03-24T13:29:49.770Z,23.30
2023-03-24T13:32:24.691Z,23.65
2023-03-24T13:35:12.751Z,23.68
2023-03-24T13:37:45.460Z,23.53
2023-03-24T13:40:20.063Z,23.29
2023-03-24T13:43:07.511Z,23.38
2023-03-24T13:45:47.967Z,23.10
2023-03-24T13:48:17.606Z,23.22
2023-03-24T13:50:54.584Z,23.18
2023-03-24T13:53:28.528Z,23.11
2023-03-24T13:55:56.068Z,23.35
2023-03-24T13:58:25.590Z,23.39
2023-03-24T14:01:06.691Z,23.20
2023-03-24T14:03:41.856Z,22.73
2023-03-24T14:06:09.819Z,22.95
2023-03-24T14:08:41.936Z,22.54
2023-03-24T14:11:28.245Z,22.52
2023-03-24T14:13:55.826Z,22.86
2023-03-24T14:16:32.600Z,22.97
2023-03-24T14:19:08.559Z,22.69
2023-03-24T14:21:38.464Z,22.62
2023-03-24T14:24:14.634Z,22.51
2023-03-24T14:26:42.013Z,22.41
2023-03-24T14:29:28.447Z,22.35
2023-03-24T14:32:02.366Z,22.43
2023-03-24T14:34:37.735Z,22.13
2023-03-24T14:37:07.677Z,22.19
2023-03-24T14:39:35.658Z,21.91
2023-03-24T14:42:22.797Z,21.83
2023-03-24T14:44:51.320Z,21.92
2023-03-24T14:47:19.209Z,22.19
2023-03-24T14:49:46.533Z,22.30
2023-03-24T14:52:24.808Z,22.42
2023-03-24T14:54:53.943Z,22.14
2023-03-24T14:57:22.709Z,22.35
2023-03-24T15:00:02.226Z,21.83
2023-03-24T15:02:39.485Z,22.03
2023-03-24T15:05:25.682Z,21.78
2023-03-24T15:08:11.934Z,21.69
2023-03-24T15:10:39.235Z,21.55
2023-03-24T15:13:06.692Z,21.59
2023-03-24T15:15:33.926Z,21.56
2023-03-24T15:18:01.705Z,21.55
2023-03-24T15:20:29.790Z,21.35
2023-03-24T15:22:57.081Z,21.17
2023-03-24T15:25:28.347Z,21.28
2023-03-24T15:27:57.731Z,21.36
2023-03-24T15:30:25.291Z,21.17
2023-03-24T15:32:52.751Z,21.04
2023-03-24T15:35:23.640Z,21.10
2023-03-24T15:37:56.448Z,21.12
2023-03-24T15:40:27.071Z,21.15
2023-03-24T15:42:55.373Z,21.16
2023-03-24T15:45:25.299Z,21.12
2023-03-24T15:47:53.336Z,21.34
2023-03-24T15:50:32.898Z,21.27
2023-03-24T15:53:05.957Z,21.26
2023-03-24T15:55:37.172Z,21.11
2023-03-24T15:58:35.709Z,21.24
2023-03-24T16:01:06.540Z,21.17
2023-03-24T16:03:34.327Z,21.36
2023-03-24T16:06:02.568Z,21.07
2023-03-24T16:08:36.130Z,21.00
2023-03-24T16:11:07.066Z,20.97
2023-03-24T16:13:34.548Z,21.12
2023-03-24T16:16:07.375Z,20.99
2023-03-24T16:18:38.754Z,20.83
2023-03-24T16:21:10.880Z,20.87
2023-03-24T16:23:38.435Z,20.72
2023-03-24T16:26:06.466Z,20.55
2023-03-24T16:28:34.504Z,20.55
2023-03-24T16:31:02.839Z,20.36
2023-03-24T16:33:33.861Z,20.38
2023-03-24T16:36:01.345Z,20.32
2023-03-24T16:38:28.978Z,20.30
2023-03-24T16:40:56.491Z,20.29
2023-03-24T16:43:24.076Z,20.20
2023-03-24T16:45:51.828Z,20.09
2023-03-24T16:48:19.104Z,20.16
2023-03-24T16:50:50.221Z,20.13
2023-03-24T16:53:18.550Z,20.01
2023-03-24T16:55:46.934Z,20.11
2023-03-24T16:58:16.409Z,20.37
2023-03-24T17:00:45.744Z,20.13
2023-03-24T17:03:14.225Z,20.13
2023-03-24T17:05:43.799Z,20.09
2023-03-24T17:08:11.976Z,20.02
2023-03-24T17:10:39.436Z,20.11
2023-03-24T17:13:07.273Z,20.13
2023-03-24T17:15:34.883Z,19.99
2023-03-24T17:18:02.931Z,19.89
2023-03-24T17:20:30.452Z,19.83
2023-03-24T17:22:58.435Z,19.87
2023-03-24T17:25:29.662Z,19.73
2023-03-24T17:28:00.424Z,19.50
2023-03-24T17:30:30.066Z,19.30
2023-03-24T17:32:57.863Z,19.14
2023-03-24T17:35:25.933Z,19.16
2023-03-24T17:37:53.814Z,19.05
2023-03-24T17:40:22.046Z,18.99
2023-03-24T17:42:50.337Z,18.97
2023-03-24T17:45:20.140Z,19.04
2023-03-24T17:47:48.444Z,19.02
2023-03-24T17:50:15.864Z,18.94
2023-03-24T17:52:47.000Z,18.97
2023-03-24T17:55:16.034Z,18.90
2023-03-24T17:57:44.688Z,18.90
2023-03-24T18:00:13.739Z,18.96
2023-03-24T18:02:42.893Z,19.15
2023-03-24T18:05:12.676Z,19.28
2023-03-24T18:07:40.384Z,19.51
2023-03-24T18:10:10.767Z,19.55
2023-03-24T18:12:38.577Z,19.48
2023-03-24T18:15:07.637Z,19.28
2023-03-24T18:17:39.159Z,19.25
2023-03-24T18:20:11.679Z,18.60
2023-03-24T18:22:41.434Z,18.54
2023-03-24T18:25:10.791Z,18.75
2023-03-24T18:27:40.297Z,18.49
2023-03-24T18:30:11.857Z,18.84
2023-03-24T18:32:40.409Z,19.14
2023-03-24T18:35:09.126Z,19.42
2023-03-24T18:37:37.637Z,18.55
2023-03-24T18:40:10.340Z,18.30
2023-03-24T18:42:40.168Z,18.20
2023-03-24T18:45:08.937Z,18.52
2023-03-24T18:47:37.211Z,18.63
2023-03-24T18:50:06.570Z,18.33
2023-03-24T18:52:35.202Z,18.03
2023-03-24T18:55:04.400Z,18.81
2023-03-24T18:57:36.462Z,19.68
2023-03-24T19:00:11.497Z,19.14
2023-03-24T19:02:39.863Z,19.39
2023-03-24T19:05:10.175Z,18.73
2023-03-24T19:07:38.416Z,19.15
2023-03-24T19:10:06.560Z,18.53
2023-03-24T19:12:35.386Z,18.56
2023-03-24T19:15:05.960Z,18.34
2023-03-24T19:17:34.337Z,18.42
2023-03-24T19:20:07.829Z,17.77
2023-03-24T19:22:36.484Z,18.36
2023-03-24T19:25:06.269Z,18.14
2023-03-24T19:27:34.309Z,18.28
2023-03-24T19:30:05.343Z,18.04
2023-03-24T19:32:33.854Z,17.61
2023-03-24T19:35:02.330Z,18.01
2023-03-24T19:37:31.942Z,18.67
2023-03-24T19:40:00.483Z,18.48
2023-03-24T19:42:33.155Z,18.70
2023-03-24T19:45:02.604Z,18.65
2023-03-24T19:47:34.625Z,18.70
2023-03-24T19:50:07.307Z,18.73
2023-03-24T19:52:36.543Z,18.86
2023-03-24T19:55:07.189Z,18.76
2023-03-24T19:57:35.413Z,17.35
2023-03-24T20:00:06.748Z,17.27
2023-03-24T20:02:37.409Z,17.68
2023-03-24T20:05:05.581Z,18.24
2023-03-24T20:07:34.355Z,17.74
2023-03-24T20:10:04.717Z,17.33
2023-03-24T20:12:33.462Z,17.69
2023-03-24T20:15:02.849Z,17.68
2023-03-24T20:17:37.811Z,18.38
2023-03-24T20:20:08.220Z,17.99
2023-03-24T20:22:37.215Z,18.18
2023-03-24T20:25:06.201Z,17.90
2023-03-24T20:27:35.382Z,16.99
2023-03-24T20:30:05.182Z,15.83
2023-03-24T20:32:34.442Z,16.70
2023-03-24T20:35:05.985Z,15.43
2023-03-24T20:37:39.009Z,15.66
2023-03-24T20:40:12.280Z,15.74
2023-03-24T20:42:42.414Z,15.08
2023-03-24T20:45:10.990Z,15.05
2023-03-24T20:47:39.367Z,14.87
2023-03-24T20:50:07.808Z,15.44
2023-03-24T20:52:36.556Z,15.56
2023-03-24T20:55:06.941Z,15.95
2023-03-24T20:57:36.637Z,16.66
2023-03-24T21:00:14.188Z,16.21
2023-03-24T21:02:43.189Z,15.69
2023-03-24T21:05:12.834Z,16.24
2023-03-24T21:07:44.700Z,15.41
2023-03-24T21:10:13.412Z,15.37
2023-03-24T21:12:52.356Z,15.17
2023-03-24T21:15:28.168Z,15.59
2023-03-24T21:17:57.112Z,15.71
2023-03-24T21:20:28.808Z,16.10
2023-03-24T21:22:57.086Z,16.53
2023-03-24T21:25:27.379Z,17.06
2023-03-24T21:27:56.909Z,16.24
2023-03-24T21:30:26.146Z,15.57
2023-03-24T21:32:54.908Z,15.99
2023-03-24T21:35:23.077Z,15.35
2023-03-24T21:37:53.985Z,15.33
2023-03-24T21:40:23.016Z,16.27
2023-03-24T21:42:50.843Z,16.53
2023-03-24T21:45:19.364Z,16.29
2023-03-24T21:47:47.361Z,16.43
2023-03-24T21:50:19.086Z,16.75
2023-03-24T21:52:47.805Z,16.33
2023-03-24T21:55:15.858Z,16.37
2023-03-24T21:57:43.869Z,16.74
2023-03-24T22:00:15.042Z,16.72
2023-03-24T22:02:45.617Z,17.29
2023-03-24T22:05:17.195Z,17.30
2023-03-24T22:07:44.755Z,16.96
2023-03-24T22:10:14.502Z,17.03
2023-03-24T22:12:43.114Z,16.89
2023-03-24T22:15:11.194Z,16.73
2023-03-24T22:17:38.902Z,17.16
2023-03-24T22:20:06.710Z,17.23
2023-03-24T22:22:34.402Z,17.31
2023-03-24T22:25:01.814Z,16.97
2023-03-24T22:27:29.332Z,16.95
2023-03-24T22:29:56.917Z,16.89
2023-03-24T22:32:24.255Z,16.35
2023-03-24T22:34:51.829Z,16.96
2023-03-24T22:37:19.520Z,16.62
2023-03-24T22:39:46.718Z,16.57
2023-03-24T22:42:14.098Z,17.32
2023-03-24T22:44:42.283Z,17.63
2023-03-24T22:47:09.674Z,17.68
2023-03-24T22:49:37.902Z,17.69
2023-03-24T22:52:05.944Z,17.43
2023-03-24T22:54:33.145Z,17.43
2023-03-24T22:57:00.444Z,17.34
2023-03-24T22:59:31.085Z,16.71
2023-03-24T23:02:08.783Z,16.30
2023-03-24T23:04:39.709Z,16.23
2023-03-24T23:07:07.697Z,16.31
2023-03-24T23:09:36.566Z,16.24
2023-03-24T23:12:04.637Z,15.89
2023-03-24T23:14:31.828Z,15.80
2023-03-24T23:16:59.278Z,15.59
2023-03-24T23:19:28.177Z,15.48
2023-03-24T23:21:55.483Z,15.50
2023-03-24T23:24:22.782Z,15.66
2023-03-24T23:26:50.269Z,15.34
2023-03-24T23:29:17.541Z,15.14
2023-03-24T23:31:44.777Z,15.37
2023-03-24T23:34:12.589Z,15.24
2023-03-24T23:36:44.823Z,15.26
2023-03-24T23:39:12.554Z,15.18
2023-03-24T23:41:39.794Z,15.30
2023-03-24T23:44:07.023Z,15.34
2023-03-24T23:46:34.650Z,15.44
2023-03-24T23:49:01.814Z,15.85
2023-03-24T23:51:29.049Z,16.05
2023-03-24T23:53:56.555Z,15.58
2023-03-24T23:56:23.767Z,16.67
2023-03-24T23:58:51.010Z,15.95
